createdAt,value
2023-12-07T00:01:41.665Z,26.62
2023-12-07T00:04:44.623Z,18.60
2023-12-07T00:07:47.179Z,27.53
2023-12-07T00:10:49.848Z,24.63
2023-12-07T00:13:52.237Z,20.73
2023-12-07T00:16:55.254Z,20.42
2023-12-07T00:19:57.624Z,24.10
2023-12-07T00:23:00.314Z,19.87
2023-12-07T00:26:02.720Z,44.83
2023-12-07T00:29:05.436Z,26.67
2023-12-07T00:32:07.839Z,32.92
2023-12-07T00:35:11.340Z,35.03
2023-12-07T00:38:13.787Z,28.80
2023-12-07T00:41:16.429Z,29.00
2023-12-07T00:44:18.797Z,29.87
2023-12-07T00:47:21.440Z,37.38
2023-12-07T00:50:23.813Z,48.83
2023-12-07T00:53:26.432Z,52.43
2023-12-07T00:56:28.804Z,39.50
2023-12-07T00:59:35.073Z,50.38
2023-12-07T01:02:37.772Z,41.72
2023-12-07T01:05:40.756Z,45.58
2023-12-07T01:08:44.186Z,34.93
2023-12-07T01:11:46.840Z,49.57
2023-12-07T01:14:49.235Z,39.55
2023-12-07T01:17:53.756Z,46.37
2023-12-07T01:20:57.228Z,39.80
2023-12-07T01:24:10.198Z,39.63
2023-12-07T01:27:15.901Z,47.00
2023-12-07T01:30:18.648Z,47.00
2023-12-07T01:33:21.471Z,53.33
2023-12-07T01:36:24.194Z,38.85
2023-12-07T01:39:26.788Z,52.83
2023-12-07T01:42:29.458Z,51.47
2023-12-07T01:45:31.917Z,44.03
2023-12-07T01:48:34.727Z,50.75
2023-12-07T01:51:37.530Z,57.67
2023-12-07T01:54:40.309Z,47.43
2023-12-07T01:57:44.545Z,42.67
2023-12-07T02:00:48.335Z,34.45
2023-12-07T02:03:51.147Z,33.08
2023-12-07T02:07:00.184Z,41.78
2023-12-07T02:10:02.954Z,38.73
2023-12-07T02:13:06.260Z,44.73
2023-12-07T02:16:15.062Z,23.20
2023-12-07T02:19:56.326Z,37.80
2023-12-07T02:23:03.509Z,44.20
2023-12-07T02:26:22.788Z,46.90
2023-12-07T02:29:25.291Z,32.10
2023-12-07T02:32:27.969Z,35.88
2023-12-07T02:35:31.012Z,34.95
2023-12-07T02:38:34.183Z,30.70
2023-12-07T02:41:37.427Z,26.73
2023-12-07T02:44:40.619Z,30.00
2023-12-07T02:47:44.678Z,22.08
2023-12-07T02:50:47.619Z,24.27
2023-12-07T02:53:49.961Z,31.35
2023-12-07T02:56:52.592Z,32.50
2023-12-07T02:59:54.928Z,37.40
2023-12-07T03:02:57.592Z,29.58
2023-12-07T03:06:00.038Z,35.75
2023-12-07T03:09:02.989Z,24.55
2023-12-07T03:12:05.938Z,22.93
2023-12-07T03:15:10.759Z,18.93
2023-12-07T03:18:13.253Z,22.95
2023-12-07T03:21:16.004Z,26.12
2023-12-07T03:24:18.369Z,19.52
2023-12-07T03:27:21.854Z,19.77
2023-12-07T03:30:24.241Z,23.50
2023-12-07T03:33:27.023Z,24.85
2023-12-07T03:36:31.760Z,20.67
2023-12-07T03:39:35.460Z,21.33
2023-12-07T03:42:50.858Z,16.70
2023-12-07T03:45:59.293Z,23.53
2023-12-07T03:49:01.857Z,16.02
2023-12-07T03:52:04.900Z,18.35
2023-12-07T03:55:07.987Z,15.55
2023-12-07T03:58:10.734Z,17.47
2023-12-07T04:01:13.201Z,18.60
2023-12-07T04:04:16.207Z,18.10
2023-12-07T04:07:18.644Z,15.02
2023-12-07T04:10:21.320Z,13.50
2023-12-07T04:13:23.734Z,13.93
2023-12-07T04:16:27.127Z,8.03
2023-12-07T04:19:29.544Z,15.23
2023-12-07T04:22:32.751Z,14.32
2023-12-07T04:25:35.209Z,9.82
2023-12-07T04:28:38.430Z,12.47
2023-12-07T04:31:40.875Z,14.00
2023-12-07T04:34:43.558Z,12.52
2023-12-07T04:37:46.024Z,10.10
2023-12-07T04:40:48.754Z,10.15
2023-12-07T04:43:51.399Z,10.10
2023-12-07T04:46:54.045Z,8.83
2023-12-07T04:49:56.468Z,10.48
2023-12-07T04:52:59.072Z,10.00
2023-12-07T04:56:01.550Z,8.70
2023-12-07T04:59:04.238Z,8.00
2023-12-07T05:02:07.366Z,8.70
2023-12-07T05:05:10.303Z,6.53
2023-12-07T05:08:12.757Z,8.75
2023-12-07T05:11:15.547Z,5.82
2023-12-07T05:14:18.051Z,8.53
2023-12-07T05:17:20.715Z,8.93
2023-12-07T05:20:25.270Z,8.52
2023-12-07T05:23:28.000Z,8.07
2023-12-07T05:26:33.864Z,7.30
2023-12-07T05:29:39.508Z,8.00
2023-12-07T05:32:42.188Z,11.10
2023-12-07T05:35:44.966Z,8.63
2023-12-07T05:38:47.310Z,7.85
2023-12-07T05:41:50.021Z,8.95
2023-12-07T05:44:52.493Z,7.43
2023-12-07T05:47:55.384Z,9.17
2023-12-07T05:50:57.788Z,9.07
2023-12-07T05:54:00.428Z,7.55
2023-12-07T05:57:03.212Z,9.50
2023-12-07T06:00:10.430Z,7.83
2023-12-07T06:03:14.816Z,8.17
2023-12-07T06:06:17.437Z,8.60
2023-12-07T06:09:19.968Z,7.55
2023-12-07T06:12:27.660Z,7.72
2023-12-07T06:15:31.812Z,4.37
2023-12-07T06:18:35.043Z,10.50
2023-12-07T06:21:37.689Z,9.93
2023-12-07T06:24:40.680Z,10.50
2023-12-07T06:27:43.205Z,9.93
2023-12-07T06:30:46.232Z,8.70
2023-12-07T06:33:49.242Z,7.20
2023-12-07T06:36:51.924Z,7.18
2023-12-07T06:39:54.395Z,9.50
2023-12-07T06:42:57.097Z,8.75
2023-12-07T06:45:59.634Z,9.80
2023-12-07T06:49:02.649Z,8.03
2023-12-07T06:52:05.570Z,8.35
2023-12-07T06:55:10.502Z,7.20
2023-12-07T06:58:13.132Z,9.50
2023-12-07T07:01:15.985Z,10.13
2023-12-07T07:04:18.847Z,11.00
2023-12-07T07:07:21.708Z,9.52
2023-12-07T07:10:25.729Z,9.30
2023-12-07T07:13:28.638Z,5.95
2023-12-07T07:16:31.584Z,10.57
2023-12-07T07:19:34.644Z,10.33
2023-12-07T07:22:37.099Z,9.18
2023-12-07T07:25:40.205Z,8.27
2023-12-07T07:28:42.741Z,8.45
2023-12-07T07:31:45.717Z,10.90
2023-12-07T07:34:48.220Z,9.13
2023-12-07T07:37:50.976Z,10.20
2023-12-07T07:40:53.656Z,9.38
2023-12-07T07:43:56.590Z,10.88
2023-12-07T07:46:59.052Z,11.27
2023-12-07T07:50:06.352Z,10.77
2023-12-07T07:53:08.842Z,11.12
2023-12-07T07:56:11.526Z,9.32
2023-12-07T07:59:13.939Z,9.18
2023-12-07T08:02:16.723Z,9.83
2023-12-07T08:05:19.441Z,10.83
2023-12-07T08:08:22.409Z,10.13
2023-12-07T08:11:25.051Z,8.88
2023-12-07T08:14:28.745Z,8.57
2023-12-07T08:17:32.068Z,10.23
2023-12-07T08:20:34.605Z,9.43
2023-12-07T08:23:37.320Z,10.88
2023-12-07T08:26:40.198Z,9.40
2023-12-07T08:29:42.911Z,8.38
2023-12-07T08:32:45.397Z,8.00
2023-12-07T08:35:50.262Z,9.53
2023-12-07T08:38:52.792Z,10.98
2023-12-07T08:41:55.503Z,11.02
2023-12-07T08:44:57.994Z,10.48
2023-12-07T08:48:00.961Z,12.13
2023-12-07T08:51:03.498Z,10.80
2023-12-07T08:54:06.850Z,11.27
2023-12-07T08:57:09.420Z,9.23
2023-12-07T09:00:14.359Z,10.35
2023-12-07T09:03:17.052Z,12.53
2023-12-07T09:06:20.031Z,12.70
2023-12-07T09:09:23.504Z,12.23
2023-12-07T09:12:34.686Z,10.70
2023-12-07T09:15:40.444Z,10.05
2023-12-07T09:18:44.235Z,8.83
2023-12-07T09:21:47.019Z,11.90
2023-12-07T09:24:49.702Z,13.95
2023-12-07T09:27:52.584Z,11.23
2023-12-07T09:30:55.776Z,11.07
2023-12-07T09:33:58.355Z,8.00
2023-12-07T09:37:14.498Z,11.97
2023-12-07T09:40:18.762Z,7.90
2023-12-07T09:43:21.885Z,9.82
2023-12-07T09:46:24.980Z,13.43
2023-12-07T09:49:27.733Z,11.13
2023-12-07T09:52:30.237Z,9.17
2023-12-07T09:55:34.681Z,9.82
2023-12-07T09:58:41.289Z,8.82
2023-12-07T10:01:44.661Z,7.90
2023-12-07T10:04:47.435Z,9.50
2023-12-07T10:07:51.031Z,9.57
2023-12-07T10:11:11.623Z,8.50
2023-12-07T10:14:14.633Z,13.07
2023-12-07T10:17:17.312Z,8.43
2023-12-07T10:20:27.369Z,12.27
2023-12-07T10:23:32.992Z,9.50
2023-12-07T10:26:38.418Z,9.35
2023-12-07T10:29:41.444Z,10.32
2023-12-07T10:32:44.028Z,9.32
2023-12-07T10:35:48.395Z,10.83
2023-12-07T10:38:53.644Z,8.17
2023-12-07T10:41:57.969Z,11.45
2023-12-07T10:45:05.509Z,9.43
2023-12-07T10:48:12.850Z,11.40
2023-12-07T10:51:23.319Z,12.07
2023-12-07T10:54:43.539Z,11.83
2023-12-07T10:57:47.873Z,14.18
2023-12-07T11:00:51.003Z,10.27
2023-12-07T11:03:54.204Z,12.68
2023-12-07T11:07:03.984Z,11.57
2023-12-07T11:10:13.863Z,11.53
2023-12-07T11:13:30.047Z,12.98
2023-12-07T11:16:39.092Z,10.55
2023-12-07T11:19:43.116Z,10.27
2023-12-07T11:22:45.686Z,11.10
2023-12-07T11:25:49.303Z,11.73
2023-12-07T11:28:52.490Z,14.13
2023-12-07T11:32:17.163Z,12.52
2023-12-07T11:35:22.557Z,8.10
2023-12-07T11:38:25.256Z,16.93
2023-12-07T11:41:30.508Z,9.93
2023-12-07T11:44:36.138Z,10.02
2023-12-07T11:47:38.718Z,12.57
2023-12-07T11:50:59.882Z,16.90
2023-12-07T11:54:02.527Z,10.97
2023-12-07T11:57:05.817Z,15.77
2023-12-07T12:00:09.033Z,13.52
2023-12-07T12:03:12.390Z,15.00
2023-12-07T12:06:14.889Z,16.45
2023-12-07T12:09:23.567Z,12.80
2023-12-07T12:12:34.217Z,16.60
2023-12-07T12:15:36.985Z,14.80
2023-12-07T12:18:39.864Z,15.25
2023-12-07T12:21:44.499Z,13.38
2023-12-07T12:24:46.982Z,14.80
2023-12-07T12:27:50.373Z,8.40
2023-12-07T12:30:53.206Z,15.85
2023-12-07T12:33:57.742Z,16.20
2023-12-07T12:37:00.568Z,12.30
2023-12-07T12:40:07.777Z,7.60
2023-12-07T12:43:12.115Z,7.67
2023-12-07T12:46:16.843Z,13.95
2023-12-07T12:49:19.858Z,15.25
2023-12-07T12:52:26.778Z,27.55
2023-12-07T12:55:32.015Z,13.87
2023-12-07T12:58:34.791Z,18.10
2023-12-07T13:01:37.672Z,17.90
2023-12-07T13:04:42.501Z,15.05
2023-12-07T13:07:46.065Z,9.55
2023-12-07T13:10:48.767Z,12.87
2023-12-07T13:13:51.298Z,15.43
2023-12-07T13:16:54.493Z,15.73
2023-12-07T13:19:57.062Z,20.58
2023-12-07T13:22:59.816Z,14.93
2023-12-07T13:26:02.326Z,15.00
2023-12-07T13:29:05.055Z,7.07
2023-12-07T13:32:07.486Z,10.68
2023-12-07T13:35:11.027Z,9.27
2023-12-07T13:38:13.543Z,11.82
2023-12-07T13:41:16.296Z,19.73
2023-12-07T13:44:25.240Z,13.33
2023-12-07T13:47:33.386Z,14.13
2023-12-07T13:50:36.658Z,13.73
2023-12-07T13:53:39.619Z,14.77
2023-12-07T13:56:42.073Z,14.40
2023-12-07T13:59:44.815Z,13.53
2023-12-07T14:02:47.584Z,14.40
2023-12-07T14:05:50.724Z,11.73
2023-12-07T14:08:53.190Z,11.85
2023-12-07T14:11:56.355Z,13.77
2023-12-07T14:14:59.148Z,14.43
2023-12-07T14:18:02.837Z,13.57
2023-12-07T14:21:13.925Z,14.57
2023-12-07T14:24:26.481Z,13.45
2023-12-07T14:27:28.884Z,11.87
2023-12-07T14:30:32.350Z,12.70
2023-12-07T14:33:34.958Z,12.55
2023-12-07T14:36:40.197Z,12.07
2023-12-07T14:39:42.941Z,12.98
2023-12-07T14:42:46.862Z,14.67
2023-12-07T14:45:49.784Z,13.50
2023-12-07T14:48:52.688Z,12.32
2023-12-07T14:51:57.447Z,21.40
2023-12-07T14:55:00.391Z,19.55
2023-12-07T14:58:02.892Z,15.93
2023-12-07T15:01:06.035Z,12.57
2023-12-07T15:04:12.742Z,11.65
2023-12-07T15:07:20.931Z,10.63
2023-12-07T15:10:23.295Z,18.83
2023-12-07T15:13:25.991Z,17.13
2023-12-07T15:16:28.384Z,16.53
2023-12-07T15:19:31.103Z,14.68
2023-12-07T15:22:33.750Z,12.70
2023-12-07T15:25:36.763Z,12.18
2023-12-07T15:28:40.896Z,13.27
2023-12-07T15:31:44.865Z,12.90
2023-12-07T15:34:47.529Z,11.43
2023-12-07T15:37:50.355Z,11.25
2023-12-07T15:40:57.168Z,14.85
2023-12-07T15:43:59.912Z,15.30
2023-12-07T15:47:02.431Z,9.17
2023-12-07T15:50:05.470Z,10.20
2023-12-07T15:53:08.601Z,11.23
2023-12-07T15:56:12.069Z,12.13
2023-12-07T15:59:14.588Z,9.80
2023-12-07T16:02:18.301Z,7.93
2023-12-07T16:05:21.343Z,11.77
2023-12-07T16:08:24.974Z,15.73
2023-12-07T16:11:27.703Z,12.52
2023-12-07T16:14:31.563Z,8.03
2023-12-07T16:17:34.573Z,8.53
2023-12-07T16:20:38.226Z,8.30
2023-12-07T16:23:41.067Z,11.02
2023-12-07T16:26:43.709Z,13.05
2023-12-07T16:29:46.739Z,8.00
2023-12-07T16:32:50.674Z,15.37
2023-12-07T16:35:53.653Z,18.02
2023-12-07T16:38:56.215Z,39.25
2023-12-07T16:42:02.355Z,23.98
2023-12-07T16:45:07.694Z,16.53
2023-12-07T16:48:10.752Z,14.97
2023-12-07T16:51:13.918Z,14.93
2023-12-07T16:54:16.724Z,11.43
2023-12-07T16:57:19.302Z,26.20
2023-12-07T17:00:22.111Z,21.27
2023-12-07T17:03:25.076Z,23.70
2023-12-07T17:06:27.862Z,16.25
2023-12-07T17:09:30.416Z,17.02
2023-12-07T17:12:33.134Z,17.77
2023-12-07T17:15:35.658Z,14.67
2023-12-07T17:18:38.549Z,14.13
2023-12-07T17:21:41.370Z,10.85
2023-12-07T17:24:44.404Z,9.40
2023-12-07T17:27:46.843Z,12.45
2023-12-07T17:30:49.621Z,21.07
2023-12-07T17:33:52.092Z,8.03
2023-12-07T17:36:54.847Z,11.45
2023-12-07T17:39:58.442Z,19.05
2023-12-07T17:43:01.517Z,8.57
2023-12-07T17:46:03.986Z,6.13
2023-12-07T17:49:08.607Z,7.03
2023-12-07T17:52:11.145Z,13.62
2023-12-07T17:55:13.944Z,13.43
2023-12-07T17:58:17.269Z,15.38
2023-12-07T18:01:22.924Z,10.83
2023-12-07T18:04:26.046Z,9.07
2023-12-07T18:07:29.248Z,7.87
2023-12-07T18:10:32.645Z,10.60
2023-12-07T18:13:35.057Z,13.62
2023-12-07T18:16:37.871Z,23.97
2023-12-07T18:19:40.391Z,7.27
2023-12-07T18:22:43.300Z,15.65
2023-12-07T18:25:45.684Z,16.40
2023-12-07T18:28:48.543Z,15.88
2023-12-07T18:31:52.636Z,17.80
2023-12-07T18:34:55.574Z,21.70
2023-12-07T18:37:58.181Z,17.83
2023-12-07T18:41:00.928Z,18.27
2023-12-07T18:44:03.415Z,23.17
2023-12-07T18:47:06.387Z,27.00
2023-12-07T18:50:09.494Z,19.07
2023-12-07T18:53:12.270Z,15.63
2023-12-07T18:56:16.189Z,16.30
2023-12-07T18:59:18.897Z,27.90
2023-12-07T19:02:21.346Z,22.17
2023-12-07T19:05:24.156Z,16.73
2023-12-07T19:08:26.697Z,25.27
2023-12-07T19:11:29.473Z,30.85
2023-12-07T19:14:31.952Z,13.18
2023-12-07T19:17:34.690Z,13.43
2023-12-07T19:20:37.433Z,7.87
2023-12-07T19:23:40.117Z,12.27
2023-12-07T19:26:43.222Z,8.02
2023-12-07T19:29:45.918Z,11.38
2023-12-07T19:32:49.444Z,9.63
2023-12-07T19:35:52.525Z,9.53
2023-12-07T19:38:55.031Z,15.98
2023-12-07T19:41:58.102Z,12.30
2023-12-07T19:45:00.942Z,14.38
2023-12-07T19:48:04.127Z,14.03
2023-12-07T19:51:06.782Z,17.80
2023-12-07T19:54:10.902Z,18.67
2023-12-07T19:57:13.524Z,10.38
2023-12-07T20:00:18.827Z,11.48
2023-12-07T20:03:21.963Z,14.63
2023-12-07T20:06:33.677Z,18.43
2023-12-07T20:09:39.302Z,13.18
2023-12-07T20:12:42.239Z,10.00
2023-12-07T20:15:44.912Z,11.25
2023-12-07T20:18:48.175Z,12.13
2023-12-07T20:21:51.189Z,5.37
2023-12-07T20:24:53.648Z,11.23
2023-12-07T20:27:56.353Z,7.90
2023-12-07T20:30:58.815Z,9.25
2023-12-07T20:34:01.794Z,7.67
2023-12-07T20:37:04.398Z,12.93
2023-12-07T20:40:08.023Z,9.27
2023-12-07T20:43:10.716Z,7.22
2023-12-07T20:46:13.381Z,8.43
2023-12-07T20:49:16.053Z,10.97
2023-12-07T20:52:20.436Z,8.47
2023-12-07T20:55:22.902Z,6.93
2023-12-07T20:58:32.804Z,7.78
2023-12-07T21:01:35.317Z,6.65
2023-12-07T21:04:38.146Z,9.13
2023-12-07T21:07:40.548Z,4.40
2023-12-07T21:10:43.309Z,8.02
2023-12-07T21:13:45.656Z,5.95
2023-12-07T21:16:48.382Z,6.35
2023-12-07T21:19:51.092Z,7.77
2023-12-07T21:22:54.091Z,6.27
2023-12-07T21:25:56.509Z,8.98
2023-12-07T21:28:59.234Z,10.15
2023-12-07T21:32:01.624Z,19.62
2023-12-07T21:35:04.842Z,3.60
2023-12-07T21:38:07.360Z,5.67
2023-12-07T21:41:11.108Z,15.13
2023-12-07T21:44:13.501Z,14.05
2023-12-07T21:47:16.143Z,15.63
2023-12-07T21:50:18.495Z,19.20
2023-12-07T21:53:21.163Z,16.70
2023-12-07T21:56:23.564Z,14.73
2023-12-07T21:59:26.345Z,5.32
2023-12-07T22:02:28.892Z,9.15
2023-12-07T22:05:32.229Z,9.77
2023-12-07T22:08:34.731Z,19.10
2023-12-07T22:11:37.514Z,17.08
2023-12-07T22:14:40.240Z,19.98
2023-12-07T22:17:43.005Z,18.10
2023-12-07T22:20:45.742Z,17.67
2023-12-07T22:23:48.570Z,15.93
2023-12-07T22:26:51.015Z,17.85
2023-12-07T22:29:53.942Z,19.27
2023-12-07T22:32:56.504Z,19.52
2023-12-07T22:35:59.580Z,25.70
2023-12-07T22:39:02.550Z,20.67
2023-12-07T22:42:05.648Z,23.20
2023-12-07T22:45:09.748Z,20.08
2023-12-07T22:48:13.289Z,22.73
2023-12-07T22:51:15.858Z,20.37
2023-12-07T22:54:18.671Z,16.73
2023-12-07T22:57:21.137Z,20.77
2023-12-07T23:00:24.946Z,22.55
2023-12-07T23:03:27.395Z,21.58
2023-12-07T23:06:30.140Z,17.07
2023-12-07T23:09:32.582Z,19.87
2023-12-07T23:12:36.016Z,18.00
2023-12-07T23:15:38.441Z,18.55
2023-12-07T23:18:41.538Z,17.65
2023-12-07T23:21:43.975Z,19.20
2023-12-07T23:24:46.738Z,24.77
2023-12-07T23:27:49.138Z,20.12
2023-12-07T23:30:53.726Z,20.90
2023-12-07T23:33:56.279Z,22.05
2023-12-07T23:36:59.099Z,23.93
2023-12-07T23:40:01.638Z,18.93
2023-12-07T23:43:04.363Z,23.02
2023-12-07T23:46:10.105Z,20.33
2023-12-07T23:49:12.873Z,17.55
2023-12-07T23:52:15.276Z,22.13
2023-12-07T23:55:17.936Z,18.90
2023-12-07T23:58:20.351Z,19.80
